KADW/ADW METAR and TAF weather

Enter ICAO airport designator
Station Type Date Time Source
KADW METAR 2022/06/27 18:56 UTC NOAA

KADW 271856Z AUTO 30011KT 10SM FEW100 SCT130 SCT150 BKN170 BKN200 24/21 A2996 RMK AO2 RAE22DZB22E24 SLP150 P0003 T02410206 $


Station Type Date Time Source
KADW Decoded METAR 2022/06/27 18:56 UTC NOAA

Camp Springs / Andrews Air Force Base, MD, United States (KADW) 38-49N 076-51W 88M
Jun 27, 2022 - 02:56 PM EDT / 2022.06.27 1856 UTC
Wind: from the WNW (300 degrees) at 13 MPH (11 KT):0
Visibility: 10 mile(s):0
Sky conditions: mostly cloudy
Precipitation last hour: 0.03 inches
Temperature: 75.4 F (24.1 C)
Dew Point: 69.1 F (20.6 C)
Relative Humidity: 80%
Pressure (altimeter): 29.96 in. Hg (1014 hPa)
ob: KADW 271856Z AUTO 30011KT 10SM FEW100 SCT130 SCT150 BKN170 BKN200 24/21 A2996 RMK AO2 RAE22DZB22E24 SLP150 P0003 T02410206
cycle: 19

Station Type Date Time Source
KADW TAF 2022/06/27 17:18 UTC NOAA

TAF TAF KADW 271700Z 2717/2823 32012KT 9000 -SHRA BKN015 BKN050 OVC070 QNH2996INS
TEMPO 2717/2719 -RA VCTS BKN020CB OVC050
BECMG 2719/2720 31006KT 9999 NSW SCT090 BKN120 QNH2996INS
BECMG 2722/2723 VRB06KT 9999 SKC QNH2998INS
BECMG 2814/2815 34010KT 9999 FEW040 QNH2999INS TX27/2720Z TN15/2810Z

Example: see airport list